Time;durP1;ratioP1;P1;durP2;ratioP2;P2;SDS_P1;SDS_P2;PMS_P1;PMS_P2;Temp;Humidity;BMP_temperature;BMP_pressure;BME280_temperature;BME280_humidity;BME280_pressure;Samples;Min_cycle;Max_cycle;Signal;HPM_P1;HPM_P2
2021/11/17 05:48:24;;;;;;;57.28;31.13;;;;;;;1.76;83.36;100494.69;4984138;28;106291;-73
2021/11/17 05:50:59;;;;;;;63.10;32.38;;;;;;;1.80;83.22;100485.66;4982419;28;106095;-80
2021/11/17 05:53:38;;;;;;;62.65;33.50;;;;;;;1.85;83.58;100487.03;4982501;28;106078;-74
2021/11/17 05:56:16;;;;;;;58.35;29.88;;;;;;;1.95;83.54;100489.84;4984558;28;106086;-75
2021/11/17 05:59:21;;;;;;;63.60;32.95;;;;;;;2.01;83.54;100483.34;4984012;28;106107;-77
2021/11/17 06:01:46;;;;;;;69.13;33.92;;;;;;;2.07;83.58;100488.16;4985208;28;105864;-76
2021/11/17 06:04:11;;;;;;;71.75;35.00;;;;;;;2.14;83.37;100483.31;4984774;28;106208;-75
2021/11/17 06:06:38;;;;;;;67.60;35.13;;;;;;;2.20;83.30;100483.72;4983903;28;105869;-73
2021/11/17 06:09:06;;;;;;;70.07;35.10;;;;;;;2.25;83.89;100475.50;4984164;28;105982;-73
2021/11/17 06:11:52;;;;;;;61.78;33.63;;;;;;;2.31;83.60;100480.31;4984863;28;106276;-74
2021/11/17 06:14:29;;;;;;;57.03;33.35;;;;;;;2.40;83.74;100483.25;4984160;28;106038;-77
2021/11/17 06:16:58;;;;;;;63.75;33.92;;;;;;;2.45;83.28;100486.38;4984021;28;105899;-73
2021/11/17 06:19:26;;;;;;;55.40;33.67;;;;;;;2.52;83.16;100495.50;4983868;28;106289;-75
2021/11/17 06:21:53;;;;;;;61.03;33.63;;;;;;;2.57;83.13;100496.03;4983203;28;106085;-76
2021/11/17 06:24:20;;;;;;;64.55;34.25;;;;;;;2.61;83.32;100505.38;4983675;28;106281;-75
2021/11/17 06:26:47;;;;;;;76.88;35.97;;;;;;;2.64;83.43;100505.13;4984041;28;105972;-73
2021/11/17 06:29:22;;;;;;;61.63;34.35;;;;;;;2.69;83.24;100502.16;4983942;28;106024;-74
2021/11/17 06:31:49;;;;;;;65.45;36.08;;;;;;;2.75;82.98;100511.41;4984526;28;105903;-75
2021/11/17 06:34:34;;;;;;;58.08;33.53;;;;;;;2.76;82.85;100510.44;4983511;28;106278;-72
2021/11/17 06:37:03;;;;;;;54.15;31.23;;;;;;;2.79;82.92;100502.31;4983921;28;105921;-74
2021/11/17 06:39:29;;;;;;;55.47;28.92;;;;;;;2.82;83.01;100507.38;4983042;28;105957;-76
2021/11/17 06:41:56;;;;;;;63.25;33.97;;;;;;;2.82;82.76;100515.28;4984663;28;105873;-75
2021/11/17 06:44:23;;;;;;;57.50;32.00;;;;;;;2.85;83.19;100523.78;4983356;28;106309;-73
2021/11/17 06:46:48;;;;;;;60.33;32.30;;;;;;;2.88;82.99;100526.19;4982935;28;105819;-69
2021/11/17 06:49:14;;;;;;;62.25;32.13;;;;;;;2.89;83.10;100521.75;4982852;28;106038;-70
2021/11/17 06:51:39;;;;;;;60.60;31.75;;;;;;;2.93;83.44;100514.50;4984245;28;106087;-74
2021/11/17 06:54:04;;;;;;;57.55;33.10;;;;;;;2.93;82.77;100515.31;4980802;28;106010;-73
2021/11/17 06:56:30;;;;;;;55.35;31.38;;;;;;;2.95;82.79;100516.03;4969465;28;106348;-74
2021/11/17 06:58:55;;;;;;;56.60;32.75;;;;;;;2.97;83.01;100523.84;4954330;28;106491;-70
2021/11/17 07:01:21;;;;;;;58.58;31.02;;;;;;;2.94;82.86;100514.38;4949658;28;106127;-71
2021/11/17 07:03:47;;;;;;;62.30;32.17;;;;;;;2.96;82.68;100515.09;4950855;28;106291;-75
2021/11/17 07:06:12;;;;;;;56.83;32.38;;;;;;;2.94;82.32;100519.63;4950426;28;106525;-74
2021/11/17 07:08:39;;;;;;;57.72;31.25;;;;;;;2.93;83.00;100514.50;4950266;28;105794;-73
2021/11/17 07:11:05;;;;;;;53.75;29.63;;;;;;;2.92;82.81;100515.44;4950918;28;106163;-72
2021/11/17 07:13:30;;;;;;;56.13;30.50;;;;;;;2.94;82.61;100524.91;4950483;28;106078;-69
2021/11/17 07:15:56;;;;;;;55.33;29.73;;;;;;;2.96;82.96;100530.88;4950485;28;106388;-69
2021/11/17 07:18:21;;;;;;;52.15;30.05;;;;;;;3.00;83.12;100537.59;4958585;28;106002;-73
2021/11/17 07:20:47;;;;;;;57.83;29.95;;;;;;;3.04;82.69;100531.16;4970487;28;105772;-73
2021/11/17 07:23:15;;;;;;;56.10;33.60;;;;;;;3.09;82.88;100532.59;4969763;28;106223;-75
2021/11/17 07:25:40;;;;;;;52.85;28.33;;;;;;;3.12;82.94;100527.97;4969813;28;105897;-75
2021/11/17 07:28:06;;;;;;;56.67;30.70;;;;;;;3.17;83.06;100524.97;4969350;28;105941;-75
2021/11/17 07:30:36;;;;;;;52.42;29.65;;;;;;;3.21;82.69;100521.16;4969094;28;106001;-72
2021/11/17 07:33:03;;;;;;;53.22;30.17;;;;;;;3.24;83.03;100528.84;4969727;28;106083;-78
2021/11/17 07:35:31;;;;;;;51.95;30.15;;;;;;;3.29;82.52;100534.59;4969817;28;105961;-75
2021/11/17 07:38:01;;;;;;;50.55;28.83;;;;;;;3.30;82.56;100535.44;4969736;28;105877;-75
2021/11/17 07:40:29;;;;;;;56.65;29.38;;;;;;;3.30;82.35;100536.28;4969636;28;105901;-75
2021/11/17 07:42:55;;;;;;;55.05;30.13;;;;;;;3.32;82.53;100533.53;4969953;28;106028;-79
2021/11/17 07:45:21;;;;;;;54.25;30.23;;;;;;;3.33;82.30;100535.22;4969440;28;106052;-78
2021/11/17 07:47:47;;;;;;;57.78;29.88;;;;;;;3.34;82.76;100531.63;4969172;28;106171;-77
2021/11/17 07:50:14;;;;;;;60.22;34.42;;;;;;;3.38;82.31;100531.28;4970089;28;106007;-80
2021/11/17 07:52:39;;;;;;;55.65;33.00;;;;;;;3.41;82.12;100532.03;4969550;28;106308;-79
2021/11/17 07:55:07;;;;;;;63.33;32.33;;;;;;;3.46;82.12;100540.38;4969431;28;106297;-75
2021/11/17 07:57:33;;;;;;;65.97;35.45;;;;;;;3.52;82.74;100538.13;4969155;28;106024;-74
2021/11/17 07:59:59;;;;;;;63.00;33.22;;;;;;;3.62;82.51;100535.63;4969621;28;106930;-74
2021/11/17 08:02:25;;;;;;;57.60;32.92;;;;;;;3.71;82.68;100534.13;4969292;28;106266;-73
2021/11/17 08:04:51;;;;;;;68.35;35.00;;;;;;;3.73;82.49;100546.22;4968873;28;106653;-74
2021/11/17 08:07:19;;;;;;;63.75;33.25;;;;;;;3.77;82.41;100538.06;4968876;28;105988;-78
2021/11/17 08:09:46;;;;;;;71.43;34.85;;;;;;;3.79;82.03;100536.19;4968284;28;105864;-73
2021/11/17 08:12:12;;;;;;;63.53;35.92;;;;;;;3.84;81.66;100539.28;4969329;28;106187;-75
2021/11/17 08:14:37;;;;;;;63.53;34.33;;;;;;;3.91;82.29;100548.41;4968880;28;105885;-74
2021/11/17 08:17:04;;;;;;;61.72;34.22;;;;;;;3.97;82.18;100561.09;4969104;28;105865;-76
2021/11/17 08:19:30;;;;;;;60.78;34.45;;;;;;;4.06;82.05;100555.13;4969765;28;105999;-73
2021/11/17 08:21:57;;;;;;;62.28;34.63;;;;;;;4.15;81.71;100558.00;4969264;28;105931;-76
2021/11/17 08:24:22;;;;;;;60.03;34.63;;;;;;;4.20;81.90;100555.84;4968636;28;106613;-76
2021/11/17 08:26:47;;;;;;;60.22;33.97;;;;;;;4.27;82.06;100553.56;4968886;28;105894;-74
2021/11/17 08:29:13;;;;;;;64.47;34.33;;;;;;;4.35;81.84;100559.09;4969938;28;106094;-78
2021/11/17 08:31:39;;;;;;;60.63;33.28;;;;;;;4.42;81.96;100555.00;4969375;28;106155;-79
2021/11/17 08:34:04;;;;;;;78.43;36.97;;;;;;;4.49;81.79;100558.81;4968402;28;105960;-75
2021/11/17 08:36:30;;;;;;;61.85;36.40;;;;;;;4.57;81.69;100550.28;4967805;28;106143;-73
2021/11/17 08:38:56;;;;;;;62.22;34.20;;;;;;;4.62;81.47;100550.78;4969254;28;105887;-74
2021/11/17 08:41:25;;;;;;;58.13;32.92;;;;;;;4.71;81.42;100557.09;4968153;28;106070;-73
2021/11/17 08:43:51;;;;;;;55.38;30.13;;;;;;;4.79;81.67;100562.59;4968378;28;106137;-74
2021/11/17 08:46:17;;;;;;;64.65;35.55;;;;;;;4.87;81.63;100552.25;4967500;28;106085;-74
2021/11/17 08:48:42;;;;;;;54.60;32.85;;;;;;;4.94;81.46;100557.88;4969392;28;105847;-75
2021/11/17 08:51:12;;;;;;;64.47;35.03;;;;;;;5.02;81.10;100559.91;4968489;28;106286;-74
2021/11/17 08:53:40;;;;;;;58.93;35.00;;;;;;;5.12;81.35;100566.09;4967854;28;106004;-74
2021/11/17 08:56:07;;;;;;;57.67;31.75;;;;;;;5.14;80.85;100565.97;4968034;28;106059;-74
2021/11/17 08:58:33;;;;;;;61.00;34.13;;;;;;;5.20;81.07;100561.03;4968894;28;107025;-74
2021/11/17 09:01:00;;;;;;;57.13;31.75;;;;;;;5.26;81.07;100557.03;4968727;28;105946;-73
2021/11/17 09:03:25;;;;;;;56.65;32.10;;;;;;;5.39;81.06;100560.34;4967658;28;105989;-75
2021/11/17 09:05:55;;;;;;;59.90;32.75;;;;;;;5.52;81.03;100565.47;4968260;28;106260;-72
2021/11/17 09:08:22;;;;;;;60.75;32.22;;;;;;;5.62;80.88;100567.31;4968687;28;106361;-73
2021/11/17 09:10:52;;;;;;;58.88;31.98;;;;;;;5.71;80.78;100564.75;4968543;28;106117;-74
2021/11/17 09:13:19;;;;;;;59.78;32.10;;;;;;;5.80;80.67;100568.41;4967524;28;106365;-75
2021/11/17 09:15:47;;;;;;;57.50;30.92;;;;;;;5.91;80.90;100565.69;4968303;28;106427;-72
2021/11/17 09:18:14;;;;;;;53.78;31.65;;;;;;;6.06;80.68;100562.75;4968761;28;106129;-76
2021/11/17 09:20:39;;;;;;;61.40;31.95;;;;;;;6.18;80.86;100568.78;4968056;28;106082;-71
2021/11/17 09:23:07;;;;;;;52.08;30.42;;;;;;;6.28;80.33;100569.66;4968019;28;106005;-71
2021/11/17 09:25:33;;;;;;;52.00;30.52;;;;;;;6.44;80.49;100566.53;4967764;28;106238;-70
2021/11/17 09:27:59;;;;;;;52.13;30.45;;;;;;;6.58;80.54;100575.91;4968783;28;106353;-72
2021/11/17 09:30:28;;;;;;;57.45;32.55;;;;;;;6.70;79.87;100574.00;4968098;28;106280;-76
2021/11/17 09:33:01;;;;;;;55.65;31.63;;;;;;;6.78;79.66;100569.69;4967625;28;105989;-73
2021/11/17 09:35:31;;;;;;;54.80;32.80;;;;;;;6.85;79.77;100574.41;4967351;28;105814;-72
2021/11/17 09:37:57;;;;;;;56.38;34.60;;;;;;;6.89;79.47;100573.16;4968272;28;106222;-73
2021/11/17 09:40:29;;;;;;;54.10;32.67;;;;;;;7.00;79.77;100583.66;4967693;28;106600;-74
2021/11/17 09:42:56;;;;;;;51.30;30.25;;;;;;;7.05;79.31;100581.44;4967289;28;105848;-74
2021/11/17 09:45:24;;;;;;;53.00;30.35;;;;;;;7.01;79.14;100582.69;4967120;28;106502;-73
2021/11/17 09:47:50;;;;;;;55.03;30.45;;;;;;;7.00;78.86;100582.81;4967645;28;106066;-73
2021/11/17 09:50:20;;;;;;;60.50;31.77;;;;;;;6.93;78.36;100578.06;4965716;28;106285;-73
2021/11/17 09:52:50;;;;;;;59.03;33.87;;;;;;;6.81;78.55;100583.59;4962065;28;106489;-70
2021/11/17 09:55:21;;;;;;;60.55;32.47;;;;;;;6.75;78.44;100585.84;4956346;28;106132;-68
2021/11/17 09:57:53;;;;;;;57.65;31.45;;;;;;;6.69;78.43;100586.38;4956334;28;106069;-69
2021/11/17 10:00:35;;;;;;;58.25;33.20;;;;;;;6.67;78.39;100582.19;4958753;28;106048;-69
2021/11/17 10:03:13;;;;;;;55.10;30.83;;;;;;;6.68;79.21;100584.69;4966717;28;106724;-70
2021/11/17 10:13:48;;;;;;;53.58;31.83;;;;;;;6.71;78.57;100570.34;4953089;28;106100;-70
2021/11/17 10:16:14;;;;;;;64.82;36.72;;;;;;;6.71;79.00;100567.72;4957803;28;106083;-70
2021/11/17 10:18:42;;;;;;;53.25;31.55;;;;;;;6.72;78.81;100564.91;4955850;28;106276;-69
2021/11/17 10:21:11;;;;;;;55.78;30.77;;;;;;;6.72;78.44;100564.91;4947571;28;106205;-71
2021/11/17 10:23:42;;;;;;;47.63;30.67;;;;;;;6.75;78.49;100564.66;4947445;28;105989;-69
2021/11/17 10:26:11;;;;;;;47.42;29.40;;;;;;;6.78;78.59;100564.38;4947441;28;106009;-70
2021/11/17 10:28:57;;;;;;;48.85;28.77;;;;;;;6.77;78.72;100560.06;4947838;28;106202;-68
2021/11/17 10:31:45;;;;;;;51.10;30.05;;;;;;;6.80;78.80;100569.53;4947833;28;105819;-66
2021/11/17 10:34:28;;;;;;;52.53;29.23;;;;;;;6.80;78.44;100560.78;4949161;28;107409;-69
2021/11/17 10:37:04;;;;;;;47.45;28.73;;;;;;;6.84;78.45;100554.22;4950693;28;106029;-67
2021/11/17 10:39:38;;;;;;;44.47;25.42;;;;;;;6.93;78.96;100543.66;4951808;28;106148;-69
2021/11/17 10:42:13;;;;;;;51.47;29.35;;;;;;;7.00;78.35;100546.59;4950937;28;106258;-68
2021/11/17 10:45:03;;;;;;;40.05;23.60;;;;;;;7.02;78.16;100544.63;4950896;28;105668;-67
2021/11/17 10:47:28;;;;;;;43.03;26.98;;;;;;;7.04;78.36;100547.97;4966018;28;106801;-71
2021/11/17 10:50:04;;;;;;;42.35;26.95;;;;;;;7.07;78.25;100536.28;4971187;28;106510;-69
2021/11/17 10:52:38;;;;;;;44.22;26.35;;;;;;;7.10;78.37;100536.81;4970486;28;106186;-69
2021/11/17 10:55:13;;;;;;;49.95;26.80;;;;;;;7.11;78.09;100541.13;4970356;28;105935;-66
2021/11/17 10:57:39;;;;;;;42.90;24.50;;;;;;;7.16;77.60;100539.88;4970235;28;106057;-67
2021/11/17 11:00:08;;;;;;;43.22;24.38;;;;;;;7.15;78.11;100535.56;4970538;28;106099;-67
2021/11/17 11:02:36;;;;;;;40.47;23.67;;;;;;;7.18;78.24;100533.47;4969782;28;106300;-67
2021/11/17 11:05:23;;;;;;;39.58;20.58;;;;;;;7.25;77.38;100528.44;4968423;28;106222;-65
2021/11/17 11:08:06;;;;;;;36.95;20.65;;;;;;;7.27;76.96;100523.84;4970137;28;106060;-67
2021/11/17 11:10:39;;;;;;;42.80;23.02;;;;;;;7.33;76.85;100520.63;4970731;28;105973;-65
2021/11/17 11:13:15;;;;;;;33.53;20.75;;;;;;;7.38;76.46;100525.50;4970266;28;106136;-63
2021/11/17 11:15:47;;;;;;;35.45;20.55;;;;;;;7.41;76.43;100528.72;4968655;28;106311;-69
2021/11/17 11:18:13;;;;;;;34.13;20.88;;;;;;;7.42;75.99;100525.09;4969768;28;106378;-69
2021/11/17 11:20:48;;;;;;;37.75;21.23;;;;;;;7.42;76.00;100529.53;4969903;28;105932;-70
2021/11/17 11:23:46;;;;;;;36.03;21.55;;;;;;;7.47;75.92;100515.88;4968871;28;105956;-69
2021/11/17 11:26:20;;;;;;;41.60;21.23;;;;;;;7.51;75.95;100522.56;4968154;28;106145;-71
2021/11/17 11:29:10;;;;;;;35.65;21.67;;;;;;;7.54;76.29;100527.59;4969683;28;106097;-69
2021/11/17 11:31:57;;;;;;;40.88;22.42;;;;;;;7.56;75.98;100523.81;4970197;28;106231;-67
2021/11/17 11:34:39;;;;;;;41.22;23.08;;;;;;;7.56;75.47;100523.81;4969585;28;106182;-68
2021/11/17 11:37:12;;;;;;;41.45;22.73;;;;;;;7.56;75.26;100523.81;4969255;28;106369;-68
2021/11/17 11:39:44;;;;;;;40.10;22.83;;;;;;;7.59;75.42;100512.91;4958094;28;106174;-68
2021/11/17 11:42:39;;;;;;;57.83;19.20;;;;;;;7.62;75.44;100503.84;4960634;28;106067;-69
2021/11/17 11:45:07;;;;;;;31.42;18.52;;;;;;;7.64;74.53;100507.19;4959700;28;106312;-69
2021/11/17 11:47:57;;;;;;;40.15;23.10;;;;;;;7.66;74.35;100493.81;4954382;28;106229;-66
2021/11/17 11:50:49;;;;;;;35.17;22.90;;;;;;;7.65;74.75;100492.13;4961967;28;107119;-70
2021/11/17 11:53:40;;;;;;;37.05;22.08;;;;;;;7.68;74.80;100492.69;4952128;28;106418;-67
2021/11/17 11:56:19;;;;;;;39.08;21.80;;;;;;;7.68;74.34;100492.69;4948653;28;106036;-67
2021/11/17 11:58:45;;;;;;;37.53;23.13;;;;;;;7.66;73.93;100485.84;4949757;28;105895;-67
2021/11/17 12:01:25;;;;;;;34.60;20.45;;;;;;;7.68;74.29;100497.97;4949497;28;105996;-68
2021/11/17 12:04:03;;;;;;;37.45;21.50;;;;;;;7.64;73.86;100496.59;4950682;28;106040;-70
2021/11/17 12:06:40;;;;;;;34.92;21.60;;;;;;;7.67;73.87;100500.75;4949752;28;105877;-70
2021/11/17 12:09:12;;;;;;;39.83;23.08;;;;;;;7.69;73.52;100499.63;4949377;28;106015;-66
2021/11/17 12:11:46;;;;;;;38.50;22.58;;;;;;;7.72;73.88;100487.91;4949104;28;106005;-70
2021/11/17 12:14:23;;;;;;;41.03;21.85;;;;;;;7.75;73.82;100495.56;4950458;28;105904;-69
2021/11/17 12:16:51;;;;;;;38.67;22.38;;;;;;;7.76;73.84;100495.44;4949728;28;105937;-65
2021/11/17 12:19:30;;;;;;;41.90;21.70;;;;;;;7.81;73.93;100491.53;4948658;28;106851;-70
2021/11/17 12:22:16;;;;;;;33.35;19.63;;;;;;;7.86;73.24;100500.72;4948901;28;106148;-69
2021/11/17 12:24:46;;;;;;;35.47;20.83;;;;;;;7.86;72.82;100499.84;4949337;28;106377;-68
2021/11/17 12:27:16;;;;;;;39.50;22.33;;;;;;;7.84;72.84;100493.88;4948667;28;106693;-66
2021/11/17 12:29:56;;;;;;;34.67;21.05;;;;;;;7.77;72.74;100497.09;4948900;28;106559;-67
2021/11/17 12:32:59;;;;;;;34.15;19.38;;;;;;;7.71;72.47;100492.38;4949123;28;105865;-68
2021/11/17 12:35:37;;;;;;;29.95;17.42;;;;;;;7.67;71.65;100491.00;4949158;28;106440;-68
2021/11/17 12:38:08;;;;;;;38.20;20.17;;;;;;;7.64;72.39;100491.28;4949764;28;106011;-68
2021/11/17 12:40:44;;;;;;;;;;;;;;;7.57;71.74;100493.69;4947944;28;106066;-67
2021/11/17 12:43:15;;;;;;;34.63;19.60;;;;;;;7.52;71.08;100500.38;4949063;28;106004;-69
2021/11/17 12:45:59;;;;;;;;;;;;;;;7.48;72.16;100504.28;4950316;28;105916;-70
2021/11/17 12:48:37;;;;;;;36.58;20.92;;;;;;;7.39;71.81;100498.03;4949802;28;105849;-68
2021/11/17 12:51:10;;;;;;;37.35;20.35;;;;;;;7.35;71.29;100496.63;4948762;28;106112;-68
2021/11/17 12:53:38;;;;;;;34.22;19.70;;;;;;;7.30;71.07;100505.03;4949270;28;106044;-67
2021/11/17 12:56:14;;;;;;;39.17;21.50;;;;;;;7.29;71.74;100498.88;4948925;28;105967;-67
2021/11/17 12:58:51;;;;;;;40.47;22.63;;;;;;;7.28;71.49;100506.97;4949591;28;106216;-68
2021/11/17 13:01:28;;;;;;;42.30;23.52;;;;;;;7.22;71.58;100499.59;4948449;28;106039;-68
2021/11/17 13:03:53;;;;;;;41.95;23.40;;;;;;;7.19;71.50;100494.56;4948935;28;106028;-67
2021/11/17 13:06:28;;;;;;;40.83;23.30;;;;;;;7.18;71.88;100490.25;4949491;28;105994;-67
2021/11/17 13:09:23;;;;;;;36.45;18.52;;;;;;;7.16;71.55;100481.59;4948574;28;106318;-67
2021/11/17 13:12:00;;;;;;;39.28;21.20;;;;;;;7.15;71.53;100490.50;4945330;28;105938;-69
2021/11/17 13:14:31;;;;;;;43.33;24.10;;;;;;;7.12;71.61;100491.63;4948279;28;106162;-69
2021/11/17 13:17:21;;;;;;;40.45;20.70;;;;;;;7.11;71.08;100490.81;4948671;28;105960;-68
2021/11/17 13:19:55;;;;;;;43.63;23.10;;;;;;;7.13;71.63;100487.19;4947724;28;106291;-68
2021/11/17 13:22:39;;;;;;;38.33;22.85;;;;;;;7.13;71.27;100497.78;4947848;28;106049;-68
2021/11/17 13:25:10;;;;;;;39.67;21.33;;;;;;;7.14;71.69;100494.16;4948164;28;105856;-67
2021/11/17 13:27:50;;;;;;;35.53;21.42;;;;;;;7.13;71.29;100497.78;4948932;28;106161;-67
2021/11/17 13:30:21;;;;;;;39.30;22.42;;;;;;;7.09;71.47;100491.91;4948764;28;106650;-66
2021/11/17 13:32:49;;;;;;;40.70;22.17;;;;;;;7.06;70.95;100500.97;4948362;28;106736;-67
2021/11/17 13:35:32;;;;;;;42.40;23.58;;;;;;;7.03;71.02;100495.97;4947928;28;106692;-69
2021/11/17 13:38:20;;;;;;;37.20;21.27;;;;;;;7.04;71.20;100495.00;4949001;28;106217;-68
2021/11/17 13:40:49;;;;;;;38.28;20.85;;;;;;;7.01;71.24;100492.63;4948884;28;106081;-67
2021/11/17 13:43:17;;;;;;;42.47;22.70;;;;;;;7.01;71.05;100494.44;4947817;28;106787;-68
2021/11/17 13:45:45;;;;;;;42.33;24.30;;;;;;;6.99;71.35;100497.22;4947886;28;106141;-67
2021/11/17 13:48:12;;;;;;;41.40;21.75;;;;;;;6.97;71.45;100508.94;4948748;28;106253;-67
2021/11/17 13:50:40;;;;;;;35.28;21.02;;;;;;;6.95;70.77;100504.59;4946717;28;106295;-67
2021/11/17 13:53:08;;;;;;;36.13;20.35;;;;;;;6.93;71.12;100511.03;4947267;28;106787;-67
2021/11/17 13:55:38;;;;;;;34.30;20.45;;;;;;;6.93;71.37;100505.75;4947534;28;105912;-69
2021/11/17 13:58:06;;;;;;;39.08;20.67;;;;;;;6.90;70.94;100508.66;4948866;28;105985;-68
2021/11/17 14:00:32;;;;;;;39.03;20.30;;;;;;;6.89;71.34;100506.97;4955739;28;106139;-70
2021/11/17 14:02:58;;;;;;;38.50;21.00;;;;;;;6.90;70.92;100498.03;4966882;28;106632;-67
2021/11/17 14:05:24;;;;;;;38.30;21.98;;;;;;;6.89;71.48;100512.25;4967407;28;105895;-69
2021/11/17 14:07:50;;;;;;;38.85;21.20;;;;;;;6.88;71.23;100500.00;4968648;28;105988;-69
2021/11/17 14:10:17;;;;;;;41.05;24.17;;;;;;;6.89;71.10;100502.53;4971344;28;106217;-69
2021/11/17 14:12:44;;;;;;;42.00;23.05;;;;;;;6.89;71.28;100496.38;4968126;28;106397;-68
2021/11/17 14:15:10;;;;;;;39.58;19.27;;;;;;;6.89;70.72;100496.38;4968936;28;106746;-71
2021/11/17 14:17:36;;;;;;;39.42;20.73;;;;;;;6.87;70.98;100495.69;4971114;28;105898;-67
2021/11/17 14:20:05;;;;;;;39.17;20.95;;;;;;;6.84;70.99;100496.78;4970954;28;106186;-70
2021/11/17 14:22:30;;;;;;;40.70;21.10;;;;;;;6.84;70.83;100506.56;4970527;28;106048;-70
2021/11/17 14:25:01;;;;;;;40.75;21.23;;;;;;;6.82;71.19;100508.50;4971425;28;106107;-78
2021/11/17 14:27:29;;;;;;;39.13;20.42;;;;;;;6.77;70.78;100509.75;4971596;28;105869;-71
2021/11/17 14:29:58;;;;;;;34.58;18.98;;;;;;;6.76;71.00;100502.78;4971320;28;106127;-74
2021/11/17 14:32:31;;;;;;;48.70;24.87;;;;;;;6.73;70.97;100507.53;4970532;28;105960;-75
2021/11/17 14:34:59;;;;;;;35.28;19.65;;;;;;;6.70;70.57;100510.47;4969177;28;106177;-75
2021/11/17 14:37:24;;;;;;;39.95;21.13;;;;;;;6.67;70.68;100508.91;4956127;28;106690;-82
2021/11/17 14:39:50;;;;;;;34.47;20.80;;;;;;;6.64;70.99;100518.94;4951464;28;106153;-73
2021/11/17 14:42:16;;;;;;;39.38;20.98;;;;;;;6.64;70.46;100519.75;4950771;28;105881;-67
2021/11/17 14:44:42;;;;;;;33.92;16.17;;;;;;;6.63;70.55;100522.53;4950705;28;105790;-75
2021/11/17 16:25:49;;;;;;;36.90;18.83;;;;;;;5.43;71.49;100530.06;5042626;27;106051;-68
2021/11/17 16:28:22;;;;;;;38.70;19.07;;;;;;;5.47;71.81;100535.09;5043594;27;106705;-76
2021/11/17 16:30:50;;;;;;;35.40;19.48;;;;;;;5.49;71.92;100534.00;5044540;27;105803;-79
2021/11/17 16:33:17;;;;;;;35.75;17.55;;;;;;;5.55;72.30;100536.13;5044673;27;105926;-70
2021/11/17 16:35:44;;;;;;;38.80;18.67;;;;;;;5.59;72.45;100540.19;5044636;27;106064;-68
2021/11/17 16:38:12;;;;;;;37.42;20.02;;;;;;;5.65;72.18;100541.47;5044434;27;106292;-72
2021/11/17 16:40:40;;;;;;;33.05;19.58;;;;;;;5.69;72.45;100542.88;5043760;27;106719;-75
2021/11/17 16:43:07;;;;;;;33.97;18.05;;;;;;;5.73;72.34;100546.94;5043716;27;105826;-70
2021/11/17 16:45:34;;;;;;;35.50;17.95;;;;;;;5.76;72.28;100551.97;5043481;27;107610;-83
2021/11/17 16:48:00;;;;;;;41.83;21.65;;;;;;;5.79;72.13;100550.03;5044534;27;106045;-82
2021/11/17 16:50:26;;;;;;;41.08;20.75;;;;;;;5.79;72.58;100550.88;5043920;27;106356;-83
2021/11/17 16:52:53;;;;;;;46.38;23.25;;;;;;;5.81;72.25;100548.94;5044167;27;106566;-82
2021/11/17 16:55:24;;;;;;;42.85;22.13;;;;;;;5.83;72.43;100546.19;5046100;27;106043;-76
2021/11/17 16:57:51;;;;;;;50.05;24.40;;;;;;;5.88;72.41;100555.38;5044338;27;106127;-82
2021/11/17 17:00:23;;;;;;;45.53;23.52;;;;;;;5.91;72.65;100552.47;5043774;27;106355;-80
2021/11/17 17:02:49;;;;;;;46.13;23.88;;;;;;;5.93;72.50;100547.91;5043747;27;106114;-68
2021/11/17 17:05:15;;;;;;;53.28;26.33;;;;;;;5.96;72.59;100549.44;5043090;27;106169;-69
2021/11/17 17:07:41;;;;;;;45.33;24.65;;;;;;;5.98;72.44;100554.63;5043825;27;106193;-68
2021/11/17 17:10:10;;;;;;;44.40;24.98;;;;;;;5.99;72.44;100559.78;5044298;27;106087;-68
2021/11/17 17:12:37;;;;;;;45.90;23.20;;;;;;;6.01;72.35;100562.31;5044345;27;106082;-69
2021/11/17 17:15:05;;;;;;;48.28;22.75;;;;;;;6.04;72.28;100560.25;5045489;27;106129;-70
2021/11/17 17:17:31;;;;;;;41.50;22.73;;;;;;;6.06;72.59;100557.47;5044208;27;106464;-70
2021/11/17 17:19:58;;;;;;;41.70;21.27;;;;;;;6.10;72.26;100567.63;5043612;27;105961;-69
2021/11/17 17:22:24;;;;;;;38.78;21.40;;;;;;;6.14;72.49;100564.72;5043501;27;106181;-68
2021/11/17 17:24:51;;;;;;;36.35;21.65;;;;;;;6.16;72.39;100573.38;5044744;27;106025;-68
2021/11/17 17:27:17;;;;;;;37.95;20.30;;;;;;;6.20;72.63;100572.97;5044222;27;106190;-69
2021/11/17 17:29:42;;;;;;;42.35;21.02;;;;;;;6.22;72.31;100565.75;5044432;27;106372;-69
2021/11/17 17:32:08;;;;;;;35.78;19.95;;;;;;;6.24;72.20;100570.91;5043966;27;106117;-68
2021/11/17 17:34:35;;;;;;;38.10;20.73;;;;;;;6.23;72.29;100567.44;5031179;27;106114;-68
2021/11/17 17:37:01;;;;;;;37.38;19.25;;;;;;;6.24;72.23;100561.16;5030627;27;106154;-68
2021/11/17 17:39:33;;;;;;;35.60;19.35;;;;;;;6.24;72.02;100563.78;5030037;27;105993;-68
2021/11/17 17:42:02;;;;;;;38.38;20.40;;;;;;;6.26;72.18;100558.38;5030274;27;106271;-66
2021/11/17 17:44:28;;;;;;;36.97;20.13;;;;;;;6.28;72.04;100556.44;5030565;28;106156;-67
2021/11/17 17:46:54;;;;;;;37.80;20.85;;;;;;;6.31;71.94;100569.41;5030373;28;106184;-67
2021/11/17 17:49:20;;;;;;;34.05;18.92;;;;;;;6.32;72.09;100563.13;5029968;28;105852;-67
2021/11/17 17:51:47;;;;;;;35.22;20.25;;;;;;;6.33;72.33;100563.97;5030163;28;105917;-68
2021/11/17 17:54:13;;;;;;;36.65;19.83;;;;;;;6.35;72.20;100569.97;5030530;27;106095;-68
2021/11/17 17:56:38;;;;;;;35.00;19.05;;;;;;;6.34;71.96;100574.44;5030160;27;106170;-69
2021/11/17 17:59:03;;;;;;;33.80;19.67;;;;;;;6.35;71.79;100575.28;5030137;27;106659;-70
2021/11/17 18:01:29;;;;;;;36.13;20.63;;;;;;;6.39;71.82;100581.97;5029331;27;106016;-72
2021/11/17 18:03:55;;;;;;;37.03;19.50;;;;;;;6.36;71.58;100574.31;4984019;27;106267;-72
2021/11/17 18:07:44;;;;;;;38.13;20.55;;;;;;;6.38;72.18;100573.19;4987185;28;105956;-67
2021/11/17 18:10:14;;;;;;;33.63;20.02;;;;;;;6.37;71.77;100582.09;4985345;28;105816;-68
2021/11/17 18:12:39;;;;;;;39.72;21.92;;;;;;;6.37;71.74;100582.09;4984247;28;106258;-64
2021/11/17 18:15:05;;;;;;;36.65;21.08;;;;;;;6.40;72.17;100587.13;4984556;28;106041;-66
2021/11/17 18:17:31;;;;;;;38.20;22.20;;;;;;;6.40;72.15;100591.59;4984404;28;105794;-69
2021/11/17 18:19:56;;;;;;;40.28;22.63;;;;;;;6.39;72.02;100593.38;4985355;28;106169;-69
2021/11/17 18:22:22;;;;;;;38.72;21.65;;;;;;;6.38;71.59;100599.66;4984642;28;106268;-68
2021/11/17 18:24:47;;;;;;;33.63;22.05;;;;;;;6.37;71.96;100599.78;4984552;28;106507;-65
2021/11/17 18:27:14;;;;;;;43.63;23.50;;;;;;;6.40;71.77;100604.81;4984210;28;105967;-65
2021/11/17 18:29:43;;;;;;;45.75;23.52;;;;;;;6.40;71.51;100596.88;4984950;28;106060;-68
2021/11/17 18:32:09;;;;;;;43.20;23.48;;;;;;;6.42;71.86;100621.38;4984244;28;106343;-64
2021/11/17 18:34:37;;;;;;;39.45;23.70;;;;;;;6.43;71.76;100618.59;4984072;28;105902;-66
2021/11/17 18:37:02;;;;;;;45.75;24.83;;;;;;;6.44;72.12;100609.72;4983589;28;106018;-70
2021/11/17 18:39:28;;;;;;;45.50;24.15;;;;;;;6.45;71.94;100610.53;4984760;28;106018;-68
2021/11/17 18:42:02;;;;;;;44.20;24.80;;;;;;;6.46;71.80;100616.69;4980984;28;107458;-67
2021/11/17 18:44:31;;;;;;;49.05;24.88;;;;;;;6.43;71.66;100615.97;4982183;28;107108;-68
2021/11/17 18:46:56;;;;;;;44.28;25.33;;;;;;;6.43;72.04;100623.06;4982322;28;106141;-65
2021/11/17 18:49:22;;;;;;;44.47;24.20;;;;;;;6.41;71.83;100620.56;4983199;28;106495;-70
2021/11/17 18:51:48;;;;;;;46.03;24.25;;;;;;;6.39;72.03;100617.19;4982391;28;106169;-69
2021/11/17 18:54:15;;;;;;;46.95;24.63;;;;;;;6.37;72.49;100627.09;4982398;28;106787;-67
2021/11/17 18:56:45;;;;;;;43.42;24.58;;;;;;;6.37;72.15;100627.09;4980263;28;106028;-70
2021/11/17 18:59:11;;;;;;;47.83;26.02;;;;;;;6.35;72.24;100631.66;4978979;28;107671;-70